Hauptseite
METAR-TAF:

METAR-TAF

Flughäfen :

Benguela, Angola

Breite: 12-36-30S, Länge: 13-24-10E, Höhe: 36 m

METAR: fehlend

Zeit: 07:38 (06:38 UTC)

Prognose

Neuester Wetterbericht von vor 7 Stunden und 38 Minuten, um 23:00 UTC
Gültige Prognose vom 25 um 00 UTC bis 25 um 12 UTC
Wind 2 kt aus unterschiedlichen Richtungen
Sichtweite: 9000 m
Leicht bewölkt in der Höhe von 2200 ft
Zeitweise
vom 25 um 03 UTC bis 25 um 07 UTC
Sichtweite: 5000 m
feuchter Dunst
Übergehend zu
vom 25 um 10 UTC bis 25 um 12 UTC
Wind 8 kt aus West/Nordwest
Sichtweite 10 km oder mehr
keine Wolken unter 1500 m und keine Kumulonimbus oder Gewitterwolken

TAF: FNBG 242300Z 2500/2512 VRB02KT 9000 FEW022 TEMPO 2503/2507 5000 BR BECMG 2510/2512 30008KT CAVOK

Wetterbeobachtungen und Prognosen von mehr als 4000 Flughäfen (METAR und TAF Bericht).

Die verfügbaren Stationen werden durch gelbe und rote Markierungen auf der Karte dargestellt.

Führen Sie die Maus auf sie, um den Namen der Station zu sehen.

Darauf klicken, um die Beobachtung von Wetterbeobachtungen und Prognosen zu sehen.

Um die Karte zu ändern : klicken Sie auf den grünen Tasten mit einem schwarzen Kreuz Zum Vergrößern, auf den grünen Button mit einem Gedankenstrich zu verkleinern, oder auf die grünen Pfeile für benachbarte Karten.


METAR-TAF: